Main page
METAR-TAF:

METAR-TAF

Airports :

Cam Ranh International Airport

Cam Ranh, Vietnam

latitude: 11-59-53N, longitude: 109-13-10E, elevation: 12 m

Current weather observation

The report was made 27 minutes ago, at 17:00 UTC
Wind 10 kt from the North
Temperature 24°C
Humidity 69%
Pressure 1016 hPa
Visibility 10 km or more
Few clouds at a height of 1500 ft
Scattered clouds at a height of 5000 ft

METAR: VVCR 051700Z 35010KT 9999 FEW015 SCT050 24/18 Q1016 NOSIG

Time: 00:27 (17:27 UTC)

Forecast

The report was made 6 hours and 27 minutes ago, at 11:00 UTC
Forecast valid from 05 at 12 UTC to 06 at 12 UTC
Wind 12 kt from the North/Northeast
Visibility 10 km or more
Scattered clouds at a height of 1500 ft
Scattered clouds at a height of 5000 ft
Temporary
from 06 at 02 UTC to 06 at 08 UTC
Wind 15 kt from the North/Northeast with gusts up to 28 kt

TAF: VVCR 051100Z 0512/0612 03012KT 9999 SCT015 SCT050 TEMPO 0602/0608 03015G28KT

Weather observations and forecasts of more than 4000 airports (METAR and TAF reports).

The available stations are represented by yellow and red dots on the map.

Hover mouse over dot to see the name of the station.

Then click to see weather observations and forecasts.

To change the map : click on the green buttons with a black cross to zoom in, on the green button with a dash to zoom out, or on the green arrows for adjacent maps.


METAR-TAF: